createdAt,value
2022-10-12T00:03:34.070Z,101022.59
2022-10-12T00:08:35.745Z,101023.66
2022-10-12T00:13:37.102Z,101028.69
2022-10-12T00:18:38.486Z,101026.38
2022-10-12T00:23:40.296Z,101027.41
2022-10-12T00:28:41.866Z,101020.91
2022-10-12T00:33:43.434Z,101025.72
2022-10-12T00:38:44.966Z,101020.91
2022-10-12T00:43:46.605Z,101018.59
2022-10-12T00:48:50.352Z,101029.28
2022-10-12T00:53:56.715Z,101019.44
2022-10-12T00:58:59.024Z,101020.31
2022-10-12T01:04:01.697Z,101022.19
2022-10-12T01:09:03.224Z,101020.69
2022-10-12T01:14:04.593Z,101014.81
2022-10-12T01:19:28.551Z,101010.63
2022-10-12T01:24:44.588Z,101014.19
2022-10-12T01:30:01.484Z,101006.00
2022-10-12T01:35:09.441Z,101016.06
2022-10-12T01:40:14.757Z,101023.00
2022-10-12T01:45:17.843Z,101002.22
2022-10-12T01:50:21.654Z,101006.84
2022-10-12T01:55:35.528Z,101008.91
2022-10-12T02:00:48.071Z,101000.72
2022-10-12T02:06:06.736Z,100995.91
2022-10-12T02:11:13.284Z,100999.69
2022-10-12T02:16:18.060Z,100996.75
2022-10-12T02:21:21.522Z,100995.28
2022-10-12T02:26:22.876Z,101003.03
2022-10-12T02:31:46.120Z,100999.50
2022-10-12T02:36:56.980Z,100996.13
2022-10-12T02:42:02.144Z,101004.72
2022-10-12T02:47:04.240Z,100998.44
2022-10-12T02:52:05.897Z,100987.94
2022-10-12T02:57:07.645Z,100991.72
2022-10-12T03:02:10.674Z,100998.00
2022-10-12T03:07:12.041Z,101003.03
2022-10-12T03:12:13.400Z,100996.75
2022-10-12T03:17:14.765Z,100992.13
2022-10-12T03:22:16.128Z,100984.56
2022-10-12T03:27:17.480Z,100988.34
2022-10-12T03:32:18.950Z,100991.94
2022-10-12T03:37:20.313Z,100988.16
2022-10-12T03:42:21.673Z,100989.44
2022-10-12T03:47:23.033Z,100990.47
2022-10-12T03:52:24.396Z,100985.00
2022-10-12T03:57:25.753Z,100986.91
2022-10-12T04:02:27.117Z,100979.97
2022-10-12T04:07:28.498Z,100987.75
2022-10-12T04:12:29.866Z,100980.16
2022-10-12T04:17:31.235Z,100977.66
2022-10-12T04:22:32.613Z,100986.28
2022-10-12T04:27:34.071Z,100978.28
2022-10-12T04:32:35.443Z,100973.66
2022-10-12T04:37:37.026Z,100975.75
2022-10-12T04:42:38.528Z,100978.47
2022-10-12T04:47:40.181Z,100977.63
2022-10-12T04:52:41.897Z,100969.19
2022-10-12T04:57:43.780Z,100977.59
2022-10-12T05:02:45.172Z,100980.09
2022-10-12T05:07:46.539Z,100979.31
2022-10-12T05:12:47.901Z,100983.06
2022-10-12T05:17:49.262Z,100981.63
2022-10-12T05:22:50.621Z,100982.47
2022-10-12T05:27:51.993Z,100986.66
2022-10-12T05:32:53.402Z,100974.28
2022-10-12T05:37:54.780Z,100983.06
2022-10-12T05:42:56.145Z,100988.09
2022-10-12T05:47:57.572Z,100976.16
2022-10-12T05:52:58.952Z,100973.84
2022-10-12T05:58:00.323Z,100985.81
2022-10-12T06:03:01.690Z,100984.53
2022-10-12T06:08:03.065Z,100974.75
2022-10-12T06:13:04.455Z,100990.13
2022-10-12T06:18:05.825Z,100981.50
2022-10-12T06:23:07.185Z,100984.84
2022-10-12T06:28:08.568Z,100990.50
2022-10-12T06:33:09.934Z,100993.84
2022-10-12T06:38:11.297Z,100998.25
2022-10-12T06:43:12.656Z,101005.84
2022-10-12T06:48:18.394Z,101006.88
2022-10-12T06:53:20.236Z,101022.19
2022-10-12T06:58:21.613Z,101021.13
2022-10-12T07:03:22.972Z,101014.22
2022-10-12T07:08:24.356Z,101012.69
2022-10-12T07:13:25.717Z,101014.84
2022-10-12T07:18:27.117Z,101007.94
2022-10-12T07:23:30.237Z,101005.84
2022-10-12T07:28:31.664Z,101003.13
2022-10-12T07:33:38.341Z,101002.25
2022-10-12T07:38:39.863Z,100996.81
2022-10-12T07:43:41.262Z,100994.09
2022-10-12T07:48:47.466Z,100989.47
2022-10-12T07:53:51.290Z,100986.97
2022-10-12T07:58:54.003Z,100990.72
2022-10-12T08:04:01.013Z,100998.69
2022-10-12T08:09:03.253Z,100991.09
2022-10-12T08:14:04.613Z,100988.97
2022-10-12T08:19:06.010Z,100992.28
2022-10-12T08:24:07.706Z,101006.97
2022-10-12T08:29:09.648Z,100981.28
2022-10-12T08:34:11.020Z,100981.25
2022-10-12T08:39:12.421Z,100980.28
2022-10-12T08:44:35.592Z,100996.56
2022-10-12T08:49:39.881Z,100993.63
2022-10-12T08:54:42.573Z,100979.25
2022-10-12T08:59:44.522Z,100962.63
2022-10-12T09:04:56.302Z,100955.84
2022-10-12T09:10:35.480Z,100954.59
2022-10-12T09:15:50.396Z,100963.25
2022-10-12T09:20:52.233Z,100955.28
2022-10-12T09:25:54.954Z,100965.84
2022-10-12T09:31:39.036Z,100961.03
2022-10-12T09:36:41.078Z,100956.28
2022-10-12T09:41:44.317Z,100957.00
2022-10-12T09:46:48.477Z,100949.47
2022-10-12T09:51:59.081Z,100952.13
2022-10-12T09:57:00.444Z,100954.97
2022-10-12T10:02:11.052Z,100947.59
2022-10-12T10:07:33.278Z,100945.03
2022-10-12T10:12:36.040Z,100938.75
2022-10-12T10:17:37.410Z,100938.66
2022-10-12T10:22:47.192Z,100929.41
2022-10-12T10:27:50.482Z,100923.94
2022-10-12T10:32:51.849Z,100920.13
2022-10-12T10:37:55.585Z,100926.44
2022-10-12T10:42:58.168Z,100920.50
2022-10-12T10:48:06.581Z,100923.84
2022-10-12T10:53:21.094Z,100911.84
2022-10-12T10:58:29.485Z,100902.34
2022-10-12T11:03:39.012Z,100900.97
2022-10-12T11:08:40.373Z,100886.84
2022-10-12T11:13:52.277Z,100878.63
2022-10-12T11:18:56.064Z,100871.59
2022-10-12T11:24:18.697Z,100872.69
2022-10-12T11:29:20.112Z,100856.44
2022-10-12T11:34:22.500Z,100857.66
2022-10-12T11:39:30.641Z,100839.78
2022-10-12T11:44:37.507Z,100840.22
2022-10-12T11:49:51.034Z,100832.84
2022-10-12T11:55:11.817Z,100834.34
2022-10-12T12:00:36.385Z,100829.28
2022-10-12T12:05:37.786Z,100824.50
2022-10-12T12:10:41.966Z,100815.31
2022-10-12T12:15:52.437Z,100810.22
2022-10-12T12:21:06.528Z,100803.78
2022-10-12T12:26:16.146Z,100819.53
2022-10-12T12:31:24.400Z,100813.94
2022-10-12T12:36:33.551Z,100807.22
2022-10-12T12:41:57.718Z,100814.13
2022-10-12T12:47:00.392Z,100813.28
2022-10-12T12:52:01.764Z,100806.31
2022-10-12T12:57:08.827Z,100801.91
2022-10-12T13:02:23.021Z,100812.38
2022-10-12T13:07:45.556Z,100797.72
2022-10-12T13:13:24.371Z,100784.34
2022-10-12T13:18:49.239Z,100787.47
2022-10-12T13:23:53.580Z,100781.78
2022-10-12T13:28:55.214Z,100775.00
2022-10-12T13:34:05.347Z,100770.13
2022-10-12T13:39:08.740Z,100763.75
2022-10-12T13:44:30.531Z,100751.81
2022-10-12T13:49:41.569Z,100746.09
2022-10-12T13:54:46.153Z,100747.97
2022-10-12T13:59:47.548Z,100754.88
2022-10-12T14:04:49.065Z,100737.53
2022-10-12T14:09:54.496Z,100736.91
2022-10-12T14:14:55.859Z,100733.00
2022-10-12T14:19:59.696Z,100725.75
2022-10-12T14:25:11.383Z,100713.16
2022-10-12T14:30:18.313Z,100744.50
2022-10-12T14:35:21.240Z,100706.16
2022-10-12T14:40:38.278Z,100703.50
2022-10-12T14:45:39.668Z,100695.38
2022-10-12T14:50:41.283Z,100687.84
2022-10-12T14:55:44.013Z,100696.88
2022-10-12T15:00:45.432Z,100693.94
2022-10-12T15:05:46.909Z,100685.81
2022-10-12T15:10:50.370Z,100675.31
2022-10-12T15:15:51.743Z,100677.59
2022-10-12T15:20:53.775Z,100678.66
2022-10-12T15:25:55.882Z,100671.84
2022-10-12T15:31:16.591Z,100670.63
2022-10-12T15:36:18.692Z,100667.66
2022-10-12T15:41:20.675Z,100669.63
2022-10-12T15:46:22.264Z,100669.41
2022-10-12T15:51:24.181Z,100670.38
2022-10-12T15:56:25.585Z,100666.44
2022-10-12T16:01:26.974Z,100664.78
2022-10-12T16:06:28.556Z,100661.88
2022-10-12T16:11:29.913Z,100663.63
2022-10-12T16:16:32.107Z,100667.03
2022-10-12T16:21:33.474Z,100662.19
2022-10-12T16:26:34.838Z,100670.66
2022-10-12T16:31:36.478Z,100667.03
2022-10-12T16:36:38.569Z,100671.22
2022-10-12T16:41:39.932Z,100673.19
2022-10-12T16:46:41.288Z,100680.13
2022-10-12T16:51:43.172Z,100681.13
2022-10-12T16:56:44.528Z,100685.69
2022-10-12T17:01:45.884Z,100676.06
2022-10-12T17:06:47.244Z,100677.00
2022-10-12T17:11:48.656Z,100684.13
2022-10-12T17:16:50.392Z,100682.25
2022-10-12T17:21:52.930Z,100688.53
2022-10-12T17:26:54.384Z,100690.25
2022-10-12T17:31:56.069Z,100699.69
2022-10-12T17:36:58.041Z,100694.19
2022-10-12T17:41:59.401Z,100691.25
2022-10-12T17:47:00.976Z,100683.09
2022-10-12T17:52:02.368Z,100689.59
2022-10-12T17:57:04.484Z,100687.09
2022-10-12T18:02:09.383Z,100683.53
2022-10-12T18:07:11.075Z,100693.41
2022-10-12T18:12:12.458Z,100689.19
2022-10-12T18:17:13.813Z,100683.97
2022-10-12T18:22:15.419Z,100682.09
2022-10-12T18:27:16.927Z,100679.56
2022-10-12T18:32:18.565Z,100685.59
2022-10-12T18:37:20.082Z,100685.03
2022-10-12T18:42:21.497Z,100680.41
2022-10-12T18:47:24.544Z,100683.59
2022-10-12T18:52:26.044Z,100678.13
2022-10-12T18:57:31.128Z,100686.56
2022-10-12T19:02:33.826Z,100675.94
2022-10-12T19:07:35.284Z,100679.19
2022-10-12T19:12:36.683Z,100678.97
2022-10-12T19:17:38.057Z,100685.03
2022-10-12T19:22:39.469Z,100686.31
2022-10-12T19:27:40.864Z,100685.66
2022-10-12T19:32:42.806Z,100683.38
2022-10-12T19:37:44.196Z,100672.66
2022-10-12T19:42:47.792Z,100666.19
2022-10-12T19:47:49.172Z,100665.53
2022-10-12T19:52:50.556Z,100653.59
2022-10-12T19:57:51.928Z,100656.81
2022-10-12T20:02:53.288Z,100656.41
2022-10-12T20:07:54.653Z,100649.41
2022-10-12T20:12:56.060Z,100658.84
2022-10-12T20:17:57.473Z,100663.47
2022-10-12T20:22:58.830Z,100663.06
2022-10-12T20:28:02.697Z,100658.16
2022-10-12T20:33:04.404Z,100657.16
2022-10-12T20:38:05.797Z,100662.41
2022-10-12T20:43:07.190Z,100657.13
2022-10-12T20:48:08.572Z,100656.72
2022-10-12T20:53:09.928Z,100651.56
2022-10-12T20:58:11.285Z,100654.69
2022-10-12T21:03:12.750Z,100660.13
2022-10-12T21:08:14.113Z,100648.78
2022-10-12T21:13:15.469Z,100645.78
2022-10-12T21:18:16.825Z,100631.16
2022-10-12T21:23:18.202Z,100640.44
2022-10-12T21:28:19.661Z,100641.63
2022-10-12T21:33:21.177Z,100642.91
2022-10-12T21:38:22.569Z,100640.03
2022-10-12T21:43:23.928Z,100639.34
2022-10-12T21:48:25.292Z,100637.69
2022-10-12T21:53:26.657Z,100638.06
2022-10-12T21:58:28.017Z,100640.47
2022-10-12T22:03:29.368Z,100639.94
2022-10-12T22:08:30.745Z,100634.13
2022-10-12T22:13:32.108Z,100629.50
2022-10-12T22:18:33.695Z,100628.41
2022-10-12T22:23:35.128Z,100634.66
2022-10-12T22:28:36.634Z,100626.69
2022-10-12T22:33:38.084Z,100618.72
2022-10-12T22:38:39.636Z,100632.00
2022-10-12T22:43:41.214Z,100613.13
2022-10-12T22:48:42.572Z,100620.91
2022-10-12T22:53:43.929Z,100619.19
2022-10-12T22:58:45.350Z,100611.50
2022-10-12T23:03:46.721Z,100611.03
2022-10-12T23:08:48.108Z,100599.69
2022-10-12T23:13:49.510Z,100617.09
2022-10-12T23:18:59.503Z,100610.84
2022-10-12T23:24:01.606Z,100611.66
2022-10-12T23:29:03.014Z,100606.38
2022-10-12T23:34:05.193Z,100613.13
2022-10-12T23:39:06.627Z,100600.50
2022-10-12T23:44:07.987Z,100601.56
2022-10-12T23:49:09.376Z,100603.25
2022-10-12T23:54:10.732Z,100602.19
2022-10-12T23:59:12.100Z,100600.50
